Time;durP1;ratioP1;P1;durP2;ratioP2;P2;SDS_P1;SDS_P2;PMS_P1;PMS_P2;Temp;Humidity;BMP_temperature;BMP_pressure;BME280_temperature;BME280_humidity;BME280_pressure;Samples;Min_cycle;Max_cycle;Signal;HPM_P1;HPM_P2
2021/01/17 00:00:36;;;;;;;72.97;40.83;;;1.20;99.90;;;;;;5061053;28;37901;-75
2021/01/17 00:03:03;;;;;;;78.83;42.83;;;1.20;99.90;;;;;;5080306;28;38777;-75
2021/01/17 00:05:31;;;;;;;68.40;41.27;;;1.20;99.90;;;;;;5069262;28;39705;-75
2021/01/17 00:07:58;;;;;;;70.97;42.33;;;1.20;99.90;;;;;;5067060;28;38708;-75
2021/01/17 00:10:28;;;;;;;83.00;45.17;;;1.20;99.90;;;;;;5070075;28;37250;-76
2021/01/17 00:12:56;;;;;;;81.23;43.57;;;1.20;99.90;;;;;;5085988;28;40643;-75
2021/01/17 00:15:23;;;;;;;83.17;43.03;;;1.30;99.90;;;;;;5081196;28;39266;-75
2021/01/17 00:17:49;;;;;;;75.70;41.10;;;1.30;99.90;;;;;;5083150;28;39510;-75
2021/01/17 00:20:17;;;;;;;70.23;40.83;;;1.30;99.90;;;;;;5084891;28;37334;-75
2021/01/17 00:22:44;;;;;;;73.43;43.03;;;1.30;99.90;;;;;;5079546;28;39565;-75
2021/01/17 00:25:12;;;;;;;71.67;40.17;;;1.30;99.90;;;;;;5074829;28;38906;-73
2021/01/17 00:27:38;;;;;;;66.57;40.03;;;1.30;99.90;;;;;;5078364;28;38375;-75
2021/01/17 00:30:07;;;;;;;75.10;43.57;;;1.30;99.90;;;;;;5079347;28;38362;-75
2021/01/17 00:32:34;;;;;;;80.27;44.87;;;1.30;99.90;;;;;;5063813;28;48640;-75
2021/01/17 00:35:00;;;;;;;76.10;43.73;;;1.30;99.90;;;;;;5078137;27;38894;-75
2021/01/17 00:37:26;;;;;;;73.73;41.67;;;1.30;99.90;;;;;;5070556;28;38973;-75
2021/01/17 00:39:52;;;;;;;78.60;44.03;;;1.30;99.90;;;;;;5082293;28;37137;-75
2021/01/17 00:42:18;;;;;;;80.23;43.47;;;1.40;99.90;;;;;;5082623;28;39758;-75
2021/01/17 00:44:45;;;;;;;86.77;46.83;;;1.40;99.90;;;;;;5079724;28;36617;-75
2021/01/17 00:47:15;;;;;;;78.77;45.50;;;1.40;99.90;;;;;;5084058;28;39379;-75
2021/01/17 00:49:44;;;;;;;84.67;46.43;;;1.40;99.90;;;;;;5062901;28;40175;-75
2021/01/17 00:52:36;;;;;;;71.17;42.07;;;1.40;99.90;;;;;;5063375;28;39579;-75
2021/01/17 00:55:03;;;;;;;83.57;43.40;;;1.40;99.90;;;;;;5065112;28;39181;-75
2021/01/17 00:57:29;;;;;;;80.33;44.10;;;1.40;99.90;;;;;;5069194;28;39727;-75
2021/01/17 00:59:55;;;;;;;86.57;45.77;;;1.40;99.90;;;;;;5066227;28;37813;-75
2021/01/17 01:02:21;;;;;;;79.07;45.20;;;1.40;99.90;;;;;;5070460;28;39429;-75
2021/01/17 01:04:48;;;;;;;85.13;46.33;;;1.40;99.90;;;;;;5068741;28;37278;-75
2021/01/17 01:07:14;;;;;;;68.20;40.77;;;1.50;99.90;;;;;;5069087;28;39276;-75
2021/01/17 01:09:40;;;;;;;84.90;46.77;;;1.40;99.90;;;;;;5077584;28;37494;-76
2021/01/17 01:12:07;;;;;;;81.50;45.33;;;1.50;99.90;;;;;;5064253;28;39033;-75
2021/01/17 01:14:33;;;;;;;75.17;43.83;;;1.50;99.90;;;;;;5080303;27;38914;-75
2021/01/17 01:16:59;;;;;;;70.17;41.57;;;1.50;99.90;;;;;;5070053;28;38596;-75
2021/01/17 01:19:25;;;;;;;72.00;43.07;;;1.50;99.90;;;;;;5077424;28;38105;-76
2021/01/17 01:21:51;;;;;;;75.93;43.83;;;1.50;99.90;;;;;;5090172;28;40645;-75
2021/01/17 01:24:18;;;;;;;82.27;45.73;;;1.50;99.90;;;;;;5077100;27;39405;-75
2021/01/17 01:26:46;;;;;;;69.23;42.27;;;1.50;99.90;;;;;;5070602;28;40191;-75
2021/01/17 01:29:13;;;;;;;76.87;43.70;;;1.60;99.90;;;;;;5070386;28;37901;-75
2021/01/17 01:31:41;;;;;;;70.87;41.70;;;1.60;99.90;;;;;;5070710;28;38656;-75
2021/01/17 01:34:07;;;;;;;86.10;44.33;;;1.60;99.90;;;;;;5078740;28;39550;-75
2021/01/17 01:36:37;;;;;;;88.00;45.17;;;1.60;99.90;;;;;;5081164;28;39926;-76
2021/01/17 01:39:06;;;;;;;77.97;43.77;;;1.60;99.90;;;;;;5056407;28;36062;-76
2021/01/17 01:41:34;;;;;;;82.10;45.23;;;1.70;99.90;;;;;;5068062;28;37811;-75
2021/01/17 01:44:01;;;;;;;79.47;43.97;;;1.70;99.90;;;;;;5085550;28;37357;-75
2021/01/17 01:46:29;;;;;;;92.07;46.67;;;1.70;99.90;;;;;;5065329;28;46794;-75
2021/01/17 01:48:56;;;;;;;76.43;43.10;;;1.70;99.90;;;;;;5086711;28;36909;-75
2021/01/17 01:51:25;;;;;;;88.97;47.30;;;1.70;99.90;;;;;;5079460;28;37643;-75
2021/01/17 01:53:53;;;;;;;103.37;51.13;;;1.70;99.90;;;;;;5087204;28;38621;-76
2021/01/17 01:56:20;;;;;;;75.70;42.30;;;1.80;99.90;;;;;;5070160;28;37559;-75
2021/01/17 01:58:46;;;;;;;82.57;43.77;;;1.80;99.90;;;;;;5083453;28;37192;-75
2021/01/17 02:01:13;;;;;;;76.50;43.20;;;1.80;99.90;;;;;;5087626;28;38603;-76
2021/01/17 02:03:48;;;;;;;85.07;47.07;;;1.90;99.90;;;;;;5086436;28;39228;-76
2021/01/17 02:06:22;;;;;;;87.00;46.57;;;1.90;99.90;;;;;;5073654;28;40450;-75
2021/01/17 02:09:20;;;;;;;102.67;50.40;;;1.90;99.90;;;;;;5066527;28;39386;-76
2021/01/17 02:11:53;;;;;;;80.87;46.03;;;1.90;99.90;;;;;;5074398;28;47081;-75
2021/01/17 02:14:31;;;;;;;121.85;54.67;;;2.00;99.90;;;;;;5081582;28;37335;-76
2021/01/17 02:16:59;;;;;;;81.90;45.60;;;2.00;99.90;;;;;;5067671;28;38563;-75
2021/01/17 02:19:30;;;;;;;80.00;45.37;;;2.00;99.90;;;;;;5068854;28;37337;-76
2021/01/17 02:21:58;;;;;;;86.03;47.77;;;2.10;99.90;;;;;;5081375;28;39763;-76
2021/01/17 02:24:39;;;;;;;101.80;50.37;;;2.10;99.90;;;;;;5078154;28;37817;-76
2021/01/17 02:27:05;;;;;;;98.30;50.30;;;2.10;99.90;;;;;;5092647;28;38847;-76
2021/01/17 02:29:33;;;;;;;95.23;48.10;;;2.20;99.90;;;;;;5087209;28;37677;-75
2021/01/17 02:32:01;;;;;;;75.13;43.50;;;2.20;99.90;;;;;;5090243;28;38491;-76
2021/01/17 02:34:29;;;;;;;129.37;55.20;;;2.20;99.90;;;;;;5082316;28;39694;-75
2021/01/17 02:37:14;;;;;;;71.63;43.50;;;2.20;99.90;;;;;;5070024;28;39405;-75
2021/01/17 02:40:04;;;;;;;69.97;41.73;;;2.20;99.90;;;;;;5085511;28;49286;-76
2021/01/17 02:42:31;;;;;;;70.40;42.20;;;2.20;99.90;;;;;;5072393;28;47108;-76
2021/01/17 02:44:59;;;;;;;81.63;46.57;;;2.20;99.90;;;;;;5072693;28;39521;-76
2021/01/17 02:47:26;;;;;;;75.60;43.47;;;2.20;99.90;;;;;;5055940;28;40197;-75
2021/01/17 02:49:52;;;;;;;69.50;42.00;;;2.30;99.90;;;;;;5066274;28;38157;-75
2021/01/17 02:52:28;;;;;;;72.23;42.13;;;2.30;99.90;;;;;;5089664;28;38927;-76
2021/01/17 02:54:54;;;;;;;117.53;52.77;;;2.40;99.90;;;;;;5072133;28;39619;-76
2021/01/17 02:57:26;;;;;;;68.03;42.33;;;2.40;99.90;;;;;;5052516;28;39105;-76
2021/01/17 03:00:09;;;;;;;98.97;49.50;;;2.40;99.90;;;;;;5052344;28;37909;-76
2021/01/17 03:02:42;;;;;;;93.87;47.80;;;2.40;99.90;;;;;;5081257;28;46900;-75
2021/01/17 03:05:11;;;;;;;79.55;44.20;;;2.40;99.90;;;;;;5082076;28;38825;-75
2021/01/17 03:07:38;;;;;;;85.40;45.40;;;2.40;99.90;;;;;;5084980;28;38381;-76
2021/01/17 03:10:09;;;;;;;91.43;46.20;;;2.50;99.90;;;;;;5073266;28;39366;-76
2021/01/17 03:12:36;;;;;;;83.63;44.60;;;2.50;99.90;;;;;;5082207;28;47618;-75
2021/01/17 03:15:05;;;;;;;88.73;43.73;;;2.70;99.90;;;;;;5088847;28;38224;-75
2021/01/17 03:17:31;;;;;;;67.00;39.33;;;2.80;99.90;;;;;;5074018;28;46790;-75
2021/01/17 03:19:58;;;;;;;62.17;30.63;;;2.80;99.90;;;;;;5089259;28;36161;-75
2021/01/17 03:22:24;;;;;;;73.00;25.57;;;3.20;99.90;;;;;;5069615;28;38974;-75
2021/01/17 03:24:50;;;;;;;51.63;14.97;;;3.80;99.90;;;;;;5078866;28;39954;-75
2021/01/17 03:27:17;;;;;;;44.50;11.17;;;4.50;99.90;;;;;;5085871;28;38386;-75
2021/01/17 03:29:43;;;;;;;54.17;12.23;;;4.80;99.90;;;;;;5083252;28;37012;-75
2021/01/17 03:32:09;;;;;;;39.00;7.67;;;5.20;99.90;;;;;;5069318;28;39444;-74
2021/01/17 03:34:35;;;;;;;39.77;7.50;;;5.30;99.90;;;;;;5068105;28;39583;-75
2021/01/17 03:37:05;;;;;;;52.40;7.73;;;5.40;99.90;;;;;;5083363;28;38490;-76
2021/01/17 03:39:32;;;;;;;35.10;6.80;;;5.60;99.90;;;;;;5083567;28;37767;-74
2021/01/17 03:41:58;;;;;;;47.63;8.50;;;5.50;99.90;;;;;;5063133;28;40497;-75
2021/01/17 03:44:24;;;;;;;56.40;7.23;;;5.60;99.90;;;;;;5068199;28;40192;-75
2021/01/17 03:46:50;;;;;;;50.50;7.40;;;5.60;99.90;;;;;;5082645;28;38809;-74
2021/01/17 03:49:16;;;;;;;50.93;9.33;;;5.60;99.90;;;;;;5080214;28;36526;-74
2021/01/17 03:51:42;;;;;;;41.77;6.57;;;5.70;99.90;;;;;;5086248;28;39143;-75
2021/01/17 03:54:08;;;;;;;36.57;5.73;;;5.70;99.90;;;;;;5065410;28;38342;-75
2021/01/17 03:56:34;;;;;;;35.87;5.47;;;5.80;99.90;;;;;;5074177;28;38259;-75
2021/01/17 03:59:00;;;;;;;38.20;5.50;;;5.90;99.90;;;;;;5062654;28;34745;-74
2021/01/17 04:01:27;;;;;;;43.77;6.10;;;6.00;99.90;;;;;;5063417;28;39842;-74
2021/01/17 04:03:57;;;;;;;36.30;6.57;;;5.90;99.90;;;;;;5070434;28;38659;-75
2021/01/17 04:06:23;;;;;;;39.00;6.30;;;6.00;99.90;;;;;;5084304;28;39979;-74
2021/01/17 04:08:49;;;;;;;46.67;7.77;;;5.90;99.90;;;;;;5078669;28;38102;-74
2021/01/17 04:11:15;;;;;;;41.97;6.50;;;5.90;99.90;;;;;;5069895;28;40164;-75
2021/01/17 04:13:41;;;;;;;38.30;5.87;;;6.00;99.90;;;;;;5069470;28;39984;-74
2021/01/17 04:16:08;;;;;;;55.70;6.83;;;6.00;99.90;;;;;;5082062;28;38953;-74
2021/01/17 04:18:35;;;;;;;41.87;6.03;;;6.00;99.90;;;;;;5071951;28;37613;-75
2021/01/17 04:21:01;;;;;;;49.43;7.03;;;5.90;99.90;;;;;;5066589;28;38446;-75
2021/01/17 04:23:27;;;;;;;43.80;5.80;;;6.00;99.90;;;;;;5082558;28;38848;-75
2021/01/17 04:25:53;;;;;;;37.63;7.20;;;6.00;99.90;;;;;;5067721;28;39682;-75
2021/01/17 04:28:19;;;;;;;51.23;6.67;;;6.00;99.90;;;;;;5071555;28;39285;-74
2021/01/17 04:30:46;;;;;;;45.40;6.17;;;6.00;99.90;;;;;;5071592;28;39626;-74
2021/01/17 04:33:17;;;;;;;38.77;6.00;;;5.90;99.90;;;;;;5064343;28;39741;-74
2021/01/17 04:35:44;;;;;;;39.37;7.40;;;5.90;99.90;;;;;;5084062;28;38269;-74
2021/01/17 04:38:10;;;;;;;36.53;6.20;;;6.00;99.90;;;;;;5062715;28;36400;-75
2021/01/17 04:40:36;;;;;;;39.50;5.73;;;6.10;99.90;;;;;;5069741;28;39775;-74
2021/01/17 04:43:09;;;;;;;38.07;6.23;;;6.20;99.90;;;;;;5071133;27;39589;-74
2021/01/17 04:45:36;;;;;;;42.47;6.03;;;6.20;99.90;;;;;;5063098;28;39146;-75
2021/01/17 04:48:07;;;;;;;39.37;6.20;;;6.20;99.90;;;;;;5087884;28;37301;-75
2021/01/17 04:50:34;;;;;;;37.07;5.77;;;6.20;99.90;;;;;;5084903;28;39364;-75
2021/01/17 04:53:07;;;;;;;45.90;8.17;;;6.20;99.90;;;;;;5087451;28;38586;-75
2021/01/17 04:55:38;;;;;;;40.50;6.10;;;6.20;99.90;;;;;;5078239;28;49405;-74
2021/01/17 04:58:15;;;;;;;38.97;6.30;;;6.20;99.90;;;;;;5068195;28;39316;-73
2021/01/17 05:00:48;;;;;;;38.63;6.03;;;6.30;99.90;;;;;;5062742;28;41059;-74
2021/01/17 05:03:56;;;;;;;34.17;6.80;;;6.40;99.90;;;;;;5080466;28;39244;-74
2021/01/17 05:06:27;;;;;;;40.47;6.33;;;6.40;99.90;;;;;;5007246;28;38312;-75
2021/01/17 05:09:03;;;;;;;36.33;7.03;;;6.40;99.90;;;;;;5052381;28;40722;-74
2021/01/17 05:11:45;;;;;;;40.80;6.00;;;6.40;99.90;;;;;;5078404;28;48437;-74
2021/01/17 05:14:48;;;;;;;26.77;5.10;;;6.40;99.90;;;;;;5075332;28;39139;-73
2021/01/17 05:17:21;;;;;;;35.58;5.85;;;6.40;99.90;;;;;;5088612;28;37727;-74
2021/01/17 05:19:47;;;;;;;30.90;4.60;;;6.40;99.90;;;;;;5070028;28;38963;-73
2021/01/17 05:22:14;;;;;;;32.70;4.83;;;6.50;99.90;;;;;;5085824;28;38903;-73
2021/01/17 05:24:45;;;;;;;49.47;6.57;;;6.50;99.90;;;;;;5063049;28;39602;-73
2021/01/17 05:27:11;;;;;;;33.60;5.80;;;6.60;99.90;;;;;;5068186;28;38660;-74
2021/01/17 05:29:37;;;;;;;34.17;5.00;;;6.60;99.90;;;;;;5064664;28;38672;-74
2021/01/17 05:32:05;;;;;;;34.83;5.63;;;6.60;99.90;;;;;;5070019;28;39449;-74
2021/01/17 05:34:32;;;;;;;37.63;5.80;;;6.60;99.90;;;;;;5071527;28;39622;-74
2021/01/17 05:37:06;;;;;;;31.97;5.67;;;6.60;99.90;;;;;;5087090;27;38373;-74
2021/01/17 05:39:53;;;;;;;34.07;5.27;;;6.60;99.90;;;;;;5070416;28;48572;-75
2021/01/17 05:42:27;;;;;;;38.83;6.10;;;6.60;99.90;;;;;;5071488;28;39937;-74
2021/01/17 05:45:11;;;;;;;36.57;7.10;;;6.60;99.90;;;;;;5071978;28;39112;-75
2021/01/17 05:47:38;;;;;;;41.53;5.87;;;6.60;99.90;;;;;;5068970;28;47330;-74
2021/01/17 05:50:13;;;;;;;37.50;6.30;;;6.70;99.90;;;;;;5082572;28;37961;-75
2021/01/17 05:52:40;;;;;;;34.53;5.53;;;6.70;99.90;;;;;;5087733;28;39029;-74
2021/01/17 05:55:07;;;;;;;38.07;6.03;;;6.60;99.90;;;;;;5076566;28;38279;-74
2021/01/17 05:57:34;;;;;;;39.70;6.73;;;6.70;99.90;;;;;;5086605;28;37034;-74
2021/01/17 06:00:01;;;;;;;44.93;9.10;;;6.60;99.90;;;;;;5089187;28;36980;-75
2021/01/17 06:02:28;;;;;;;44.00;6.77;;;6.60;99.90;;;;;;5083844;28;38477;-75
2021/01/17 06:05:02;;;;;;;41.73;6.53;;;6.60;99.90;;;;;;5088277;28;38726;-75
2021/01/17 06:07:32;;;;;;;41.40;5.47;;;6.70;99.90;;;;;;5091344;27;40680;-75
2021/01/17 06:10:03;;;;;;;36.13;6.10;;;6.70;99.90;;;;;;5073739;28;37515;-75
2021/01/17 06:12:35;;;;;;;43.20;8.07;;;6.70;99.90;;;;;;5082734;28;47351;-74
2021/01/17 06:15:06;;;;;;;35.83;6.07;;;6.80;99.90;;;;;;5070331;28;39359;-75
2021/01/17 06:17:34;;;;;;;36.93;5.60;;;6.80;99.90;;;;;;5076689;28;47439;-74
2021/01/17 06:20:10;;;;;;;34.33;5.17;;;6.80;99.90;;;;;;5093209;28;37112;-74
2021/01/17 06:22:37;;;;;;;50.40;7.20;;;6.80;99.90;;;;;;5099550;28;39025;-74
2021/01/17 06:25:05;;;;;;;45.90;5.97;;;6.80;99.90;;;;;;5093827;28;39523;-74
2021/01/17 06:27:32;;;;;;;36.30;4.70;;;6.90;99.90;;;;;;5076388;28;39130;-75
2021/01/17 06:29:58;;;;;;;43.93;6.47;;;6.90;99.90;;;;;;5063767;28;35988;-75
2021/01/17 06:32:28;;;;;;;30.70;5.17;;;6.80;99.90;;;;;;5066913;28;39127;-74
2021/01/17 06:34:57;;;;;;;35.17;7.07;;;6.90;99.90;;;;;;5068648;28;39358;-74
2021/01/17 06:37:25;;;;;;;33.13;5.00;;;6.80;99.90;;;;;;5084187;28;38666;-75
2021/01/17 06:39:56;;;;;;;31.70;6.43;;;6.80;99.90;;;;;;5071951;28;37381;-74
2021/01/17 06:42:24;;;;;;;40.30;5.80;;;6.80;99.90;;;;;;5086431;28;39546;-75
2021/01/17 06:44:51;;;;;;;31.37;5.53;;;6.80;99.90;;;;;;5084762;28;42677;-75
2021/01/17 06:47:20;;;;;;;29.50;5.43;;;6.80;99.90;;;;;;5085097;28;38380;-75
2021/01/17 06:49:48;;;;;;;38.70;7.27;;;6.80;99.90;;;;;;5086114;28;37279;-74
2021/01/17 06:52:17;;;;;;;40.13;6.10;;;6.80;99.90;;;;;;5079298;28;39611;-75
2021/01/17 06:54:48;;;;;;;39.27;5.80;;;6.80;99.90;;;;;;5086381;28;40340;-75
2021/01/17 06:57:15;;;;;;;38.87;5.90;;;6.80;99.90;;;;;;5073432;28;38855;-75
2021/01/17 06:59:43;;;;;;;41.30;6.00;;;6.80;99.90;;;;;;5058910;28;36551;-76
2021/01/17 07:02:24;;;;;;;31.53;5.10;;;6.80;99.90;;;;;;5080926;28;40364;-75
2021/01/17 07:04:53;;;;;;;41.27;6.97;;;6.80;99.90;;;;;;5070796;28;40399;-76
2021/01/17 07:07:43;;;;;;;32.70;5.83;;;6.80;99.90;;;;;;5080298;28;38641;-75
2021/01/17 07:10:11;;;;;;;38.47;6.17;;;6.80;99.90;;;;;;5070305;28;36837;-75
2021/01/17 07:13:04;;;;;;;33.07;5.07;;;6.80;99.90;;;;;;5086582;28;47658;-75
2021/01/17 07:15:41;;;;;;;48.65;7.03;;;6.90;99.90;;;;;;5083760;28;49496;-75
2021/01/17 07:18:08;;;;;;;31.43;6.67;;;6.90;99.90;;;;;;5085691;28;38320;-75
2021/01/17 07:20:35;;;;;;;41.00;5.60;;;6.90;99.90;;;;;;5069823;28;36534;-75
2021/01/17 07:23:03;;;;;;;34.73;6.20;;;6.90;99.90;;;;;;5075535;28;39523;-75
2021/01/17 07:25:30;;;;;;;31.97;5.10;;;6.90;99.90;;;;;;5069199;28;38737;-75
2021/01/17 07:28:06;;;;;;;33.13;6.40;;;6.80;99.90;;;;;;5072944;28;38399;-76
2021/01/17 07:31:00;;;;;;;30.47;5.40;;;6.80;99.90;;;;;;5074369;28;48949;-75
2021/01/17 07:33:38;;;;;;;45.63;6.63;;;6.80;99.90;;;;;;5055858;28;37620;-75
2021/01/17 07:36:06;;;;;;;30.23;5.30;;;6.90;99.90;;;;;;5077939;28;39248;-75
2021/01/17 07:38:38;;;;;;;26.40;5.10;;;6.90;99.90;;;;;;5072903;28;39463;-75
2021/01/17 07:41:08;;;;;;;32.90;5.77;;;6.90;99.90;;;;;;5065729;28;35810;-75
2021/01/17 07:43:41;;;;;;;28.20;5.33;;;6.90;99.90;;;;;;5075181;28;39079;-75
2021/01/17 07:46:09;;;;;;;;;;;6.90;99.90;;;;;;5069406;28;38090;-75
2021/01/17 07:48:36;;;;;;;30.77;3.90;;;6.90;99.90;;;;;;5068670;28;37841;-74
2021/01/17 07:51:06;;;;;;;26.30;4.80;;;6.80;99.90;;;;;;5086922;28;34812;-75
2021/01/17 07:53:39;;;;;;;19.27;4.10;;;6.70;99.90;;;;;;5068267;28;38492;-75
2021/01/17 07:56:13;;;;;;;27.63;4.45;;;6.60;99.90;;;;;;5081339;28;38953;-76
2021/01/17 07:58:48;;;;;;;23.77;5.00;;;6.50;99.90;;;;;;5066260;28;39902;-75
2021/01/17 08:01:36;;;;;;;34.03;5.17;;;6.60;99.90;;;;;;5067282;28;36584;-75
2021/01/17 08:04:05;;;;;;;28.53;5.43;;;6.70;99.90;;;;;;5083796;28;38778;-74
2021/01/17 08:06:34;;;;;;;26.50;4.53;;;6.80;99.90;;;;;;5071908;28;38488;-75
2021/01/17 08:09:04;;;;;;;26.63;5.00;;;6.80;99.90;;;;;;5085710;28;37616;-75
2021/01/17 08:11:51;;;;;;;28.53;4.23;;;6.80;99.90;;;;;;5082454;28;49656;-75
2021/01/17 08:14:26;;;;;;;28.63;4.83;;;6.80;99.90;;;;;;5083846;28;40276;-75
2021/01/17 08:17:17;;;;;;;31.73;5.07;;;6.90;99.90;;;;;;5074161;28;39577;-75
2021/01/17 08:19:54;;;;;;;30.67;4.93;;;6.90;99.90;;;;;;5065537;28;48918;-75
2021/01/17 08:22:20;;;;;;;38.03;5.80;;;6.90;99.90;;;;;;5061944;28;40305;-74
2021/01/17 08:24:47;;;;;;;31.63;4.70;;;6.90;99.90;;;;;;5069920;28;37409;-74
2021/01/17 08:27:31;;;;;;;28.83;4.77;;;6.80;99.90;;;;;;5085558;28;39676;-74
2021/01/17 08:30:00;;;;;;;31.90;5.47;;;6.80;99.90;;;;;;5081047;28;40095;-74
2021/01/17 08:35:13;;;;;;;34.37;4.93;;;6.90;99.90;;;;;;5089889;28;39952;-77
2021/01/17 08:38:01;;;;;;;27.00;5.57;;;6.90;99.90;;;;;;5086859;28;39963;-76
2021/01/17 08:40:29;;;;;;;35.57;6.97;;;6.80;99.90;;;;;;5080553;28;48835;-75
2021/01/17 08:43:01;;;;;;;27.07;5.40;;;6.80;99.90;;;;;;5090308;28;37847;-76
2021/01/17 08:45:27;;;;;;;31.87;5.93;;;6.80;99.90;;;;;;5078783;28;48461;-75
2021/01/17 08:47:55;;;;;;;31.53;4.97;;;6.80;99.90;;;;;;5074436;28;38555;-75
2021/01/17 08:50:37;;;;;;;33.57;5.60;;;6.80;99.90;;;;;;5080520;28;38305;-75
2021/01/17 08:53:23;;;;;;;39.42;5.68;;;6.80;99.90;;;;;;5084059;28;36332;-75
2021/01/17 08:55:54;;;;;;;44.00;5.10;;;6.80;99.90;;;;;;5089161;28;39369;-76
2021/01/17 08:58:26;;;;;;;59.30;8.50;;;6.90;99.90;;;;;;5092480;28;38912;-76
2021/01/17 09:00:52;;;;;;;27.80;4.78;;;7.00;99.90;;;;;;5089981;28;42205;-75
2021/01/17 09:03:36;;;;;;;25.47;4.83;;;7.00;99.90;;;;;;5069203;28;37655;-76
2021/01/17 09:06:23;;;;;;;34.73;5.57;;;7.00;99.90;;;;;;5075868;28;40060;-75
2021/01/17 09:08:49;;;;;;;27.37;4.60;;;7.10;99.90;;;;;;5087629;28;38926;-75
2021/01/17 09:11:24;;;;;;;35.00;5.90;;;7.10;99.90;;;;;;5091479;28;37862;-75
2021/01/17 09:14:17;;;;;;;29.50;4.80;;;7.10;99.90;;;;;;5069842;28;36323;-76
2021/01/17 09:16:57;;;;;;;30.38;4.85;;;7.20;99.90;;;;;;5098676;28;48092;-76
2021/01/17 09:19:31;;;;;;;38.90;5.50;;;7.20;99.90;;;;;;5089189;28;38763;-76
2021/01/17 09:22:00;;;;;;;35.13;5.77;;;7.30;99.90;;;;;;5064727;28;39502;-76
2021/01/17 09:24:28;;;;;;;29.43;5.13;;;7.30;99.90;;;;;;5064623;28;39281;-75
2021/01/17 09:27:00;;;;;;;37.00;5.87;;;7.40;99.90;;;;;;5089258;28;39534;-74
2021/01/17 09:29:39;;;;;;;32.63;5.20;;;7.40;99.90;;;;;;5076509;28;39475;-76
2021/01/17 09:32:12;;;;;;;34.20;5.07;;;7.40;99.90;;;;;;5096827;28;39344;-76
2021/01/17 09:34:41;;;;;;;34.20;5.27;;;7.40;99.90;;;;;;5086351;28;37696;-76
2021/01/17 09:37:12;;;;;;;32.57;4.93;;;7.50;99.90;;;;;;5082770;28;39596;-75
2021/01/17 09:39:51;;;;;;;34.23;5.37;;;7.60;99.90;;;;;;5078712;27;39101;-76
2021/01/17 09:42:19;;;;;;;32.37;4.63;;;7.70;99.90;;;;;;5080471;28;38917;-76
2021/01/17 09:45:01;;;;;;;34.07;4.90;;;7.70;99.90;;;;;;5098594;28;38301;-76
2021/01/17 09:47:29;;;;;;;35.00;5.50;;;7.70;99.90;;;;;;5073412;28;47087;-76
2021/01/17 09:50:04;;;;;;;35.70;6.20;;;7.60;99.90;;;;;;5097915;28;39126;-76
2021/01/17 09:52:40;;;;;;;30.37;6.17;;;7.60;99.90;;;;;;5062986;28;45276;-77
2021/01/17 09:55:10;;;;;;;23.93;4.80;;;7.60;99.90;;;;;;5078823;28;38747;-75
2021/01/17 09:57:38;;;;;;;35.03;5.67;;;7.60;99.90;;;;;;5073638;28;40335;-76
2021/01/17 10:00:20;;;;;;;31.17;6.20;;;7.60;99.90;;;;;;5079895;28;39506;-76
2021/01/17 10:02:46;;;;;;;26.50;4.43;;;7.60;99.90;;;;;;5074228;28;39166;-75
2021/01/17 10:05:12;;;;;;;30.27;5.27;;;7.50;99.90;;;;;;5074695;28;38993;-75
2021/01/17 10:07:38;;;;;;;23.37;3.90;;;7.40;99.90;;;;;;5101530;28;38790;-76
2021/01/17 10:10:09;;;;;;;32.90;6.80;;;7.50;99.90;;;;;;5083346;28;38898;-76
2021/01/17 10:12:36;;;;;;;36.37;5.17;;;7.60;99.90;;;;;;5098047;28;48648;-76
2021/01/17 10:15:10;;;;;;;28.40;5.33;;;7.60;99.90;;;;;;5093469;28;38053;-76
2021/01/17 10:17:46;;;;;;;40.60;6.43;;;7.60;99.90;;;;;;5084559;28;38438;-76
2021/01/17 10:20:25;;;;;;;34.00;5.97;;;7.50;99.90;;;;;;5089060;28;37790;-76
2021/01/17 10:23:12;;;;;;;38.13;5.90;;;7.50;99.90;;;;;;5091885;28;40328;-76
2021/01/17 10:25:39;;;;;;;29.60;5.13;;;7.50;99.90;;;;;;5094344;28;48912;-75
2021/01/17 10:28:08;;;;;;;37.20;5.77;;;7.60;99.90;;;;;;5075877;28;39532;-76
2021/01/17 10:30:36;;;;;;;34.00;4.87;;;7.80;99.90;;;;;;5087162;28;40381;-77
2021/01/17 10:33:08;;;;;;;29.93;4.67;;;7.80;99.90;;;;;;5075454;28;38793;-77
2021/01/17 10:35:36;;;;;;;24.03;4.27;;;7.90;99.90;;;;;;5058415;28;38137;-77
2021/01/17 10:38:08;;;;;;;25.57;4.27;;;8.10;99.90;;;;;;5091198;28;38754;-77
2021/01/17 10:40:35;;;;;;;29.47;4.83;;;8.20;99.90;;;;;;5066854;28;39300;-77
2021/01/17 10:43:05;;;;;;;29.03;4.50;;;8.30;99.90;;;;;;5078994;28;39217;-80
2021/01/17 10:45:32;;;;;;;33.27;4.87;;;8.20;99.90;;;;;;5076989;28;37556;-75
2021/01/17 10:48:14;;;;;;;24.90;4.50;;;8.20;99.90;;;;;;5092276;28;38528;-76
2021/01/17 10:50:46;;;;;;;33.10;4.57;;;8.30;99.90;;;;;;5081532;28;47206;-76
2021/01/17 10:53:17;;;;;;;31.90;4.80;;;8.20;99.90;;;;;;5090914;28;39667;-76
2021/01/17 10:55:58;;;;;;;26.23;4.23;;;8.20;99.90;;;;;;5075948;28;37210;-76
2021/01/17 10:58:35;;;;;;;27.00;4.87;;;8.20;99.90;;;;;;5082165;28;39649;-76
2021/01/17 11:01:01;;;;;;;34.70;4.93;;;8.30;99.90;;;;;;5106765;27;38810;-76
2021/01/17 11:03:31;;;;;;;28.33;5.47;;;8.20;99.90;;;;;;5104619;27;48652;-76
2021/01/17 11:06:19;;;;;;;22.77;4.20;;;8.20;99.90;;;;;;5091346;28;37292;-76
2021/01/17 11:08:46;;;;;;;23.33;4.10;;;8.20;99.90;;;;;;5077866;28;47134;-76
2021/01/17 11:11:14;;;;;;;27.60;3.80;;;8.10;99.90;;;;;;5069092;28;38032;-76
2021/01/17 11:13:41;;;;;;;24.80;4.70;;;8.10;99.90;;;;;;5071984;28;38560;-76
2021/01/17 11:16:08;;;;;;;20.20;3.50;;;8.00;99.90;;;;;;5076471;28;39281;-76
2021/01/17 11:18:36;;;;;;;17.10;3.93;;;7.70;99.90;;;;;;5079041;28;38412;-77
2021/01/17 11:21:05;;;;;;;21.07;3.17;;;7.30;99.90;;;;;;5083697;28;20098;-77
2021/01/17 11:23:31;;;;;;;12.30;2.70;;;7.10;99.90;;;;;;5073979;28;38787;-77
2021/01/17 11:26:06;;;;;;;21.70;3.73;;;7.00;99.90;;;;;;5099181;28;37309;-77
2021/01/17 11:28:33;;;;;;;23.23;3.37;;;6.90;99.90;;;;;;5081795;28;47366;-75
2021/01/17 11:31:14;;;;;;;15.83;2.57;;;6.90;99.90;;;;;;5081839;28;39087;-76
2021/01/17 11:33:41;;;;;;;16.77;2.20;;;6.90;99.90;;;;;;5086692;27;48004;-75
2021/01/17 11:36:07;;;;;;;15.10;3.33;;;7.00;99.90;;;;;;5088898;28;36740;-76
2021/01/17 11:38:53;;;;;;;19.20;2.90;;;7.10;99.90;;;;;;5071531;28;39180;-75
2021/01/17 11:41:25;;;;;;;16.87;2.20;;;7.30;99.90;;;;;;5057664;28;39571;-75
2021/01/17 11:44:05;;;;;;;15.03;2.70;;;7.50;99.90;;;;;;5084440;28;38546;-75
2021/01/17 11:46:33;;;;;;;20.40;4.07;;;7.60;99.90;;;;;;5070390;28;47015;-75
2021/01/17 11:49:00;;;;;;;22.43;2.97;;;7.60;99.90;;;;;;5079597;28;40217;-75
2021/01/17 11:51:26;;;;;;;13.13;2.63;;;7.60;99.90;;;;;;5069525;28;39054;-74
2021/01/17 11:53:52;;;;;;;22.00;3.20;;;7.70;99.90;;;;;;5075042;28;39160;-75
2021/01/17 11:56:18;;;;;;;14.87;3.10;;;7.80;99.90;;;;;;5052204;28;38653;-75
2021/01/17 11:58:45;;;;;;;18.63;3.47;;;7.80;99.90;;;;;;5081004;27;39922;-74
2021/01/17 12:01:13;;;;;;;20.13;3.03;;;7.90;99.90;;;;;;5066177;28;39663;-74
2021/01/17 12:03:41;;;;;;;12.93;2.93;;;7.90;99.90;;;;;;5058723;28;38745;-74
2021/01/17 12:06:10;;;;;;;11.50;2.23;;;8.00;99.90;;;;;;5078991;28;37664;-74
2021/01/17 12:08:54;;;;;;;18.00;2.57;;;8.10;99.90;;;;;;5081275;28;39484;-75
2021/01/17 12:11:40;;;;;;;17.23;2.57;;;8.10;99.90;;;;;;5093419;28;39045;-75
2021/01/17 12:14:10;;;;;;;17.33;3.40;;;7.90;99.90;;;;;;5088855;28;36827;-75
2021/01/17 12:16:51;;;;;;;15.43;2.50;;;8.00;99.90;;;;;;5079849;28;37230;-74
2021/01/17 12:19:18;;;;;;;10.53;2.33;;;8.10;99.90;;;;;;5059531;28;39992;-75
2021/01/17 12:21:46;;;;;;;15.80;2.90;;;8.30;99.90;;;;;;5074735;28;39120;-74
2021/01/17 12:24:13;;;;;;;14.33;2.47;;;8.40;99.90;;;;;;5067673;28;40125;-76
2021/01/17 12:26:41;;;;;;;16.77;2.80;;;8.50;99.90;;;;;;5078673;28;37448;-73
2021/01/17 12:29:07;;;;;;;30.63;4.63;;;8.50;99.90;;;;;;5063326;28;38885;-73
2021/01/17 12:31:34;;;;;;;20.50;3.70;;;8.50;99.90;;;;;;5083199;28;39037;-73
2021/01/17 12:34:01;;;;;;;17.83;3.27;;;8.60;99.90;;;;;;5058814;28;39931;-73
2021/01/17 12:36:29;;;;;;;18.77;3.20;;;8.50;99.90;;;;;;5091301;28;48443;-73
2021/01/17 12:38:57;;;;;;;21.53;2.73;;;8.50;99.90;;;;;;5078545;28;39847;-73
2021/01/17 12:41:26;;;;;;;10.67;2.20;;;8.20;99.90;;;;;;5088825;28;39899;-74
2021/01/17 12:43:53;;;;;;;12.23;2.60;;;7.70;99.90;;;;;;5088440;28;39355;-74
2021/01/17 12:46:20;;;;;;;12.00;1.33;;;7.30;99.90;;;;;;5066402;28;38068;-73
2021/01/17 12:48:47;;;;;;;9.50;1.73;;;7.00;99.90;;;;;;5086836;28;40170;-74
2021/01/17 12:51:13;;;;;;;8.97;1.83;;;6.90;99.90;;;;;;5080810;28;38747;-74
2021/01/17 12:53:41;;;;;;;9.50;2.40;;;6.80;99.90;;;;;;5078065;27;38710;-73
2021/01/17 12:56:09;;;;;;;14.50;1.97;;;6.80;99.90;;;;;;5075484;28;36805;-74
2021/01/17 12:58:36;;;;;;;10.73;1.80;;;6.80;99.90;;;;;;5059045;28;40071;-74
2021/01/17 13:01:04;;;;;;;14.00;3.00;;;6.70;99.90;;;;;;5089081;28;39410;-74
2021/01/17 13:03:31;;;;;;;13.93;2.47;;;6.80;99.90;;;;;;5071446;28;39348;-73